createdAt,value
2019-02-16T00:00:19.668Z,5.80
2019-02-16T00:02:48.105Z,5.80
2019-02-16T00:05:16.546Z,5.70
2019-02-16T00:07:44.988Z,5.70
2019-02-16T00:10:13.469Z,5.70
2019-02-16T00:12:41.900Z,5.70
2019-02-16T00:15:10.430Z,5.70
2019-02-16T00:17:38.846Z,5.70
2019-02-16T00:20:08.825Z,5.70
2019-02-16T00:22:37.298Z,5.70
2019-02-16T00:25:09.230Z,5.70
2019-02-16T00:27:37.699Z,5.70
2019-02-16T00:30:07.577Z,5.60
2019-02-16T00:32:36.027Z,5.50
2019-02-16T00:35:05.430Z,5.40
2019-02-16T00:37:33.976Z,5.50
2019-02-16T00:40:02.865Z,5.50
2019-02-16T00:42:31.365Z,5.40
2019-02-16T00:44:59.791Z,5.30
2019-02-16T00:47:28.238Z,5.30
2019-02-16T00:49:56.658Z,5.30
2019-02-16T00:52:25.137Z,5.20
2019-02-16T00:54:53.650Z,5.40
2019-02-16T00:57:22.085Z,5.30
2019-02-16T00:59:50.515Z,5.30
2019-02-16T01:02:18.952Z,5.30
2019-02-16T01:04:47.404Z,5.30
2019-02-16T01:07:15.842Z,5.20
2019-02-16T01:09:44.327Z,5.10
2019-02-16T01:12:12.764Z,5.10
2019-02-16T01:14:41.206Z,5.00
2019-02-16T01:17:09.617Z,4.90
2019-02-16T01:19:38.054Z,4.90
2019-02-16T01:22:06.535Z,4.90
2019-02-16T01:24:35.029Z,4.80
2019-02-16T01:27:03.540Z,4.80
2019-02-16T01:29:31.980Z,4.70
2019-02-16T01:32:01.929Z,4.70
2019-02-16T01:34:30.383Z,4.70
2019-02-16T01:37:00.149Z,4.60
2019-02-16T01:39:30.253Z,4.60
2019-02-16T01:41:58.757Z,4.70
2019-02-16T01:44:27.278Z,4.70
2019-02-16T01:46:55.698Z,4.70
2019-02-16T01:49:24.150Z,4.70
2019-02-16T01:51:52.579Z,4.70
2019-02-16T01:54:21.016Z,4.70
2019-02-16T01:56:49.457Z,4.70
2019-02-16T01:59:17.916Z,4.70
2019-02-16T02:01:46.360Z,4.70
2019-02-16T02:04:14.797Z,4.60
2019-02-16T02:06:43.225Z,4.60
2019-02-16T02:09:12.256Z,4.60
2019-02-16T02:11:40.941Z,4.50
2019-02-16T02:14:09.376Z,4.50
2019-02-16T02:16:37.862Z,4.50
2019-02-16T02:19:06.376Z,4.50
2019-02-16T02:21:40.991Z,4.40
2019-02-16T02:24:04.923Z,4.40
2019-02-16T02:26:33.372Z,4.40
2019-02-16T02:29:01.800Z,4.40
2019-02-16T02:31:30.246Z,4.30
2019-02-16T02:33:58.680Z,4.30
2019-02-16T02:36:27.220Z,4.30
2019-02-16T02:38:55.653Z,4.30
2019-02-16T02:41:24.077Z,4.30
2019-02-16T02:43:52.522Z,4.30
2019-02-16T02:46:20.961Z,4.30
2019-02-16T02:48:49.382Z,4.30
2019-02-16T02:51:17.867Z,4.30
2019-02-16T02:53:46.294Z,4.20
2019-02-16T02:56:14.733Z,4.20
2019-02-16T02:58:43.150Z,4.20
2019-02-16T03:01:11.649Z,4.20
2019-02-16T03:03:40.065Z,4.20
2019-02-16T03:06:08.516Z,4.20
2019-02-16T03:08:36.943Z,4.20
2019-02-16T03:11:05.390Z,4.20
2019-02-16T03:13:33.847Z,4.30
2019-02-16T03:16:02.275Z,4.30
2019-02-16T03:18:30.706Z,4.30
2019-02-16T03:20:59.157Z,4.30
2019-02-16T03:23:27.809Z,4.30
2019-02-16T03:26:08.133Z,4.30
2019-02-16T03:28:45.240Z,4.20
2019-02-16T03:31:19.439Z,4.20
2019-02-16T03:33:50.943Z,4.20
2019-02-16T03:36:46.472Z,4.20
2019-02-16T03:39:15.946Z,4.10
2019-02-16T03:41:44.476Z,4.10
2019-02-16T03:44:12.892Z,4.10
2019-02-16T03:46:41.350Z,4.10
2019-02-16T03:49:09.750Z,4.10
2019-02-16T03:51:38.204Z,4.00
2019-02-16T03:54:06.657Z,4.00
2019-02-16T03:56:35.076Z,4.00
2019-02-16T03:59:03.552Z,4.00
2019-02-16T04:01:31.972Z,4.00
2019-02-16T04:04:00.413Z,4.00
2019-02-16T04:06:28.860Z,4.00
2019-02-16T04:08:57.380Z,4.00
2019-02-16T04:11:25.889Z,4.00
2019-02-16T04:13:54.336Z,4.00
2019-02-16T04:16:22.750Z,4.10
2019-02-16T04:18:51.216Z,4.20
2019-02-16T04:21:19.643Z,4.20
2019-02-16T04:23:48.109Z,4.30
2019-02-16T04:26:16.570Z,4.30
2019-02-16T04:28:45.014Z,4.20
2019-02-16T04:31:13.466Z,4.20
2019-02-16T04:33:41.905Z,4.10
2019-02-16T04:36:10.347Z,4.10
2019-02-16T04:38:38.782Z,4.00
2019-02-16T04:41:07.212Z,4.00
2019-02-16T04:43:35.623Z,3.90
2019-02-16T04:46:04.063Z,3.90
2019-02-16T04:48:32.484Z,3.90
2019-02-16T04:51:00.924Z,3.80
2019-02-16T04:53:29.338Z,3.90
2019-02-16T04:55:57.793Z,3.90
2019-02-16T04:58:26.202Z,3.90
2019-02-16T05:00:54.648Z,3.90
2019-02-16T05:03:23.085Z,4.00
2019-02-16T05:05:51.538Z,4.00
2019-02-16T05:08:19.954Z,4.10
2019-02-16T05:10:48.395Z,4.10
2019-02-16T05:13:16.808Z,4.10
2019-02-16T05:15:45.262Z,4.10
2019-02-16T05:18:13.674Z,4.10
2019-02-16T05:20:42.115Z,4.00
2019-02-16T05:23:10.521Z,3.90
2019-02-16T05:25:38.945Z,3.80
2019-02-16T05:28:07.397Z,3.70
2019-02-16T05:30:35.814Z,3.70
2019-02-16T05:33:04.237Z,3.60
2019-02-16T05:35:32.667Z,3.70
2019-02-16T05:38:01.100Z,3.70
2019-02-16T05:40:29.537Z,3.60
2019-02-16T05:42:57.972Z,3.50
2019-02-16T05:45:26.401Z,3.50
2019-02-16T05:47:54.833Z,3.50
2019-02-16T05:50:23.254Z,3.40
2019-02-16T05:52:54.389Z,3.40
2019-02-16T05:55:21.842Z,3.30
2019-02-16T05:57:50.274Z,3.30
2019-02-16T06:00:20.320Z,3.30
2019-02-16T06:02:48.766Z,3.40
2019-02-16T06:05:17.187Z,3.40
2019-02-16T06:07:45.626Z,3.40
2019-02-16T06:10:14.047Z,3.30
2019-02-16T06:12:42.472Z,3.30
2019-02-16T06:15:11.039Z,3.30
2019-02-16T06:17:39.476Z,3.30
2019-02-16T06:20:08.937Z,3.40
2019-02-16T06:22:37.368Z,3.40
2019-02-16T06:25:06.509Z,3.30
2019-02-16T06:27:34.959Z,3.40
2019-02-16T06:30:03.884Z,3.30
2019-02-16T06:32:32.374Z,3.30
2019-02-16T06:35:02.455Z,3.40
2019-02-16T06:37:32.456Z,3.50
2019-02-16T06:40:00.902Z,3.40
2019-02-16T06:42:29.352Z,3.50
2019-02-16T06:44:57.776Z,3.50
2019-02-16T06:47:27.664Z,3.40
2019-02-16T06:49:56.102Z,3.40
2019-02-16T06:52:24.545Z,3.40
2019-02-16T06:54:52.985Z,3.50
2019-02-16T06:57:25.929Z,3.50
2019-02-16T06:59:54.357Z,3.50
2019-02-16T07:02:23.761Z,3.50
2019-02-16T07:04:52.204Z,3.40
2019-02-16T07:07:20.683Z,3.40
2019-02-16T07:09:49.125Z,3.40
2019-02-16T07:12:17.634Z,3.40
2019-02-16T07:14:46.073Z,3.50
2019-02-16T07:17:27.901Z,3.50
2019-02-16T07:19:56.366Z,3.50
2019-02-16T07:22:24.794Z,3.50
2019-02-16T07:24:53.233Z,3.50
2019-02-16T07:27:21.637Z,3.60
2019-02-16T07:29:50.091Z,3.70
2019-02-16T07:32:18.500Z,3.80
2019-02-16T07:34:47.045Z,3.80
2019-02-16T07:37:15.462Z,3.90
2019-02-16T07:39:43.897Z,3.90
2019-02-16T07:42:12.330Z,3.90
2019-02-16T07:44:42.413Z,4.00
2019-02-16T07:47:21.329Z,4.00
2019-02-16T07:50:07.204Z,4.00
2019-02-16T07:52:37.300Z,4.00
2019-02-16T07:55:13.550Z,4.00
2019-02-16T07:57:43.616Z,4.00
2019-02-16T08:00:16.593Z,4.00
2019-02-16T08:02:55.461Z,4.10
2019-02-16T08:05:41.580Z,4.10
2019-02-16T08:08:23.745Z,4.20
2019-02-16T08:10:56.620Z,4.30
2019-02-16T08:13:38.809Z,4.40
2019-02-16T08:16:08.954Z,4.40
2019-02-16T08:18:54.996Z,4.60
2019-02-16T08:21:37.122Z,4.60
2019-02-16T08:24:13.226Z,4.70
2019-02-16T08:26:49.344Z,4.80
2019-02-16T08:29:19.482Z,4.90
2019-02-16T08:31:49.564Z,5.10
2019-02-16T08:34:28.777Z,5.20
2019-02-16T08:36:58.861Z,5.40
2019-02-16T08:39:41.036Z,5.60
2019-02-16T08:42:11.115Z,5.70
2019-02-16T08:44:44.143Z,5.90
2019-02-16T08:47:14.253Z,6.00
2019-02-16T08:49:56.861Z,6.20
2019-02-16T08:52:26.963Z,6.30
2019-02-16T08:54:57.070Z,6.50
2019-02-16T08:57:43.379Z,6.50
2019-02-16T09:00:16.426Z,6.70
2019-02-16T09:02:49.204Z,6.70
2019-02-16T09:05:35.156Z,6.80
2019-02-16T09:08:05.275Z,6.90
2019-02-16T09:10:50.256Z,7.10
2019-02-16T09:13:20.336Z,7.30
2019-02-16T09:15:50.461Z,7.60
2019-02-16T09:18:20.576Z,7.60
2019-02-16T09:21:14.846Z,7.80
2019-02-16T09:23:59.099Z,7.90
2019-02-16T09:26:36.257Z,8.00
2019-02-16T09:29:24.310Z,8.00
2019-02-16T09:31:57.425Z,8.10
2019-02-16T09:34:27.569Z,8.20
2019-02-16T09:37:00.742Z,8.30
2019-02-16T09:39:30.874Z,8.40
2019-02-16T09:42:01.000Z,8.50
2019-02-16T09:44:31.094Z,8.60
2019-02-16T09:47:01.166Z,8.70
2019-02-16T09:49:31.277Z,8.80
2019-02-16T09:52:07.273Z,8.90
2019-02-16T09:54:46.080Z,9.10
2019-02-16T09:57:19.127Z,9.20
2019-02-16T09:59:49.244Z,9.20
2019-02-16T10:02:19.294Z,9.30
2019-02-16T10:04:49.406Z,9.50
2019-02-16T10:07:19.470Z,9.70
2019-02-16T10:09:51.405Z,9.70
2019-02-16T10:12:37.557Z,9.80
2019-02-16T10:15:25.778Z,10.00
2019-02-16T10:18:13.441Z,10.10
2019-02-16T10:20:49.299Z,10.20
2019-02-16T10:23:22.049Z,10.40
2019-02-16T10:25:52.164Z,10.50
2019-02-16T10:28:31.341Z,10.60
2019-02-16T10:31:04.190Z,10.80
2019-02-16T10:33:34.304Z,10.90
2019-02-16T10:36:16.273Z,11.10
2019-02-16T10:38:46.330Z,11.20
2019-02-16T10:41:19.209Z,11.40
2019-02-16T10:43:51.773Z,11.50
2019-02-16T10:46:24.717Z,11.70
2019-02-16T10:49:03.656Z,11.90
2019-02-16T10:51:45.291Z,12.10
2019-02-16T10:54:15.385Z,12.40
2019-02-16T10:56:48.576Z,12.70
2019-02-16T10:59:21.220Z,12.90
2019-02-16T11:01:57.281Z,13.10
2019-02-16T11:04:27.372Z,13.40
2019-02-16T11:06:57.438Z,13.50
2019-02-16T11:09:27.596Z,13.60
2019-02-16T11:12:03.374Z,13.80
2019-02-16T11:14:42.196Z,13.90
2019-02-16T11:17:12.278Z,13.90
2019-02-16T11:19:42.349Z,14.00
2019-02-16T11:22:18.398Z,14.10
2019-02-16T11:24:57.216Z,14.30
2019-02-16T11:27:30.226Z,14.50
2019-02-16T11:30:12.415Z,14.60
2019-02-16T11:32:42.485Z,14.80
2019-02-16T11:35:28.641Z,14.80
2019-02-16T11:38:01.668Z,14.90
2019-02-16T11:40:34.798Z,15.10
2019-02-16T11:43:10.660Z,15.20
2019-02-16T11:45:49.586Z,15.30
2019-02-16T11:48:22.841Z,15.50
2019-02-16T11:50:52.975Z,15.80
2019-02-16T11:53:39.281Z,16.10
2019-02-16T11:56:24.248Z,16.20
2019-02-16T11:59:10.180Z,16.40
2019-02-16T12:01:40.782Z,16.50
2019-02-16T12:04:11.027Z,16.60
2019-02-16T12:06:42.106Z,16.60
2019-02-16T12:09:12.202Z,16.60
2019-02-16T12:11:42.270Z,16.70
2019-02-16T12:14:28.535Z,16.80
2019-02-16T12:17:01.676Z,16.90
2019-02-16T12:19:34.722Z,17.10
2019-02-16T12:22:16.841Z,17.10
2019-02-16T12:25:05.734Z,17.20
2019-02-16T12:27:50.894Z,17.50
2019-02-16T12:30:26.774Z,17.60
2019-02-16T12:32:56.844Z,17.70
2019-02-16T12:35:38.842Z,18.00
2019-02-16T12:38:08.981Z,18.20
2019-02-16T12:40:47.941Z,18.40
2019-02-16T12:43:21.065Z,18.60
2019-02-16T12:45:56.971Z,18.80
2019-02-16T12:48:27.085Z,19.00
2019-02-16T12:51:12.319Z,19.10
2019-02-16T12:53:54.329Z,19.20
2019-02-16T12:56:27.149Z,19.40
2019-02-16T12:59:02.971Z,19.60
2019-02-16T13:01:41.774Z,19.80
2019-02-16T13:04:17.797Z,19.90
2019-02-16T13:06:50.332Z,20.10
2019-02-16T13:09:23.234Z,20.10
2019-02-16T13:11:53.310Z,20.20
2019-02-16T13:14:23.440Z,20.30
2019-02-16T13:16:53.507Z,20.40
2019-02-16T13:19:23.656Z,20.50
2019-02-16T13:21:53.743Z,20.60
2019-02-16T13:24:32.966Z,20.70
2019-02-16T13:27:03.035Z,20.70
2019-02-16T13:29:33.103Z,20.80
2019-02-16T13:32:03.171Z,20.70
2019-02-16T13:34:36.223Z,20.80
2019-02-16T13:37:22.437Z,20.80
2019-02-16T13:39:58.251Z,20.80
2019-02-16T13:42:28.343Z,20.70
2019-02-16T13:45:01.061Z,20.70
2019-02-16T13:47:31.118Z,20.70
2019-02-16T13:50:04.162Z,20.60
2019-02-16T13:52:34.213Z,20.50
2019-02-16T13:55:11.209Z,20.40
2019-02-16T13:57:57.679Z,20.30
2019-02-16T14:00:30.728Z,20.30
2019-02-16T14:03:12.774Z,20.40
2019-02-16T14:05:42.845Z,20.50
2019-02-16T14:08:12.896Z,20.60
2019-02-16T14:10:42.985Z,20.70
2019-02-16T14:13:13.024Z,20.80
2019-02-16T14:16:00.990Z,20.80
2019-02-16T14:18:29.434Z,20.90
2019-02-16T14:20:58.028Z,20.90
2019-02-16T14:23:28.447Z,21.00
2019-02-16T14:25:56.624Z,20.90
2019-02-16T14:28:25.077Z,20.80
2019-02-16T14:30:53.509Z,20.70
2019-02-16T14:33:21.931Z,20.50
2019-02-16T14:35:50.420Z,20.30
2019-02-16T14:38:23.260Z,20.10
2019-02-16T14:40:51.713Z,20.00
2019-02-16T14:43:20.281Z,19.80
2019-02-16T14:45:48.754Z,19.60
2019-02-16T14:48:17.170Z,19.40
2019-02-16T14:50:45.605Z,19.20
2019-02-16T14:53:14.021Z,18.90
2019-02-16T14:55:51.572Z,18.80
2019-02-16T14:58:12.622Z,18.60
2019-02-16T15:00:41.050Z,18.40
2019-02-16T15:03:09.526Z,18.30
2019-02-16T15:05:37.985Z,18.10
2019-02-16T15:08:06.414Z,18.00
2019-02-16T15:10:34.843Z,17.80
2019-02-16T15:13:03.332Z,17.70
2019-02-16T15:15:31.825Z,17.60
2019-02-16T15:18:00.285Z,17.40
2019-02-16T15:20:28.701Z,17.30
2019-02-16T15:22:57.149Z,17.20
2019-02-16T15:25:25.660Z,17.20
2019-02-16T15:27:54.099Z,17.00
2019-02-16T15:30:22.575Z,16.90
2019-02-16T15:32:51.031Z,16.80
2019-02-16T15:35:20.578Z,16.80
2019-02-16T15:37:49.158Z,16.70
2019-02-16T15:40:17.676Z,16.60
2019-02-16T15:42:46.140Z,16.50
2019-02-16T15:45:14.927Z,16.40
2019-02-16T15:47:44.224Z,16.40
2019-02-16T15:50:14.392Z,16.30
2019-02-16T15:52:44.462Z,16.30
2019-02-16T15:55:13.162Z,16.20
2019-02-16T15:57:41.689Z,16.20
2019-02-16T16:00:18.172Z,16.10
2019-02-16T16:02:46.694Z,16.10
2019-02-16T16:05:15.221Z,16.00
2019-02-16T16:07:45.349Z,16.00
2019-02-16T16:10:21.334Z,15.90
2019-02-16T16:13:06.305Z,15.90
2019-02-16T16:15:44.659Z,15.90
2019-02-16T16:18:17.108Z,15.80
2019-02-16T16:20:47.230Z,15.80
2019-02-16T16:23:29.331Z,15.70
2019-02-16T16:26:08.280Z,15.70
2019-02-16T16:28:38.381Z,15.60
2019-02-16T16:31:17.118Z,15.60
2019-02-16T16:33:50.096Z,15.50
2019-02-16T16:36:28.970Z,15.40
2019-02-16T16:38:59.072Z,15.30
2019-02-16T16:41:29.186Z,15.20
2019-02-16T16:44:07.894Z,15.10
2019-02-16T16:46:38.086Z,15.00
2019-02-16T16:49:14.189Z,14.90
2019-02-16T16:52:00.364Z,14.80
2019-02-16T16:54:34.707Z,14.70
2019-02-16T16:57:07.568Z,14.60
2019-02-16T16:59:49.504Z,14.50
2019-02-16T17:02:35.561Z,14.40
2019-02-16T17:05:06.569Z,14.30
2019-02-16T17:07:39.799Z,14.20
2019-02-16T17:10:22.099Z,14.10
2019-02-16T17:12:52.164Z,14.00
2019-02-16T17:15:38.325Z,13.80
2019-02-16T17:18:10.865Z,13.70
2019-02-16T17:20:46.469Z,13.60
2019-02-16T17:23:16.623Z,13.50
2019-02-16T17:25:52.756Z,13.40
2019-02-16T17:28:37.733Z,13.30
2019-02-16T17:31:19.967Z,13.20
2019-02-16T17:33:55.544Z,13.10
2019-02-16T17:36:34.729Z,13.10
2019-02-16T17:39:04.858Z,12.90
2019-02-16T17:41:51.415Z,12.80
2019-02-16T17:44:27.112Z,12.70
2019-02-16T17:46:57.395Z,12.60
2019-02-16T17:49:33.214Z,12.60
2019-02-16T17:52:18.723Z,12.50
2019-02-16T17:54:51.814Z,12.50
2019-02-16T17:57:25.006Z,12.50
2019-02-16T18:00:03.742Z,12.60
2019-02-16T18:02:52.064Z,12.60
2019-02-16T18:05:22.129Z,12.50
2019-02-16T18:07:58.165Z,12.40
2019-02-16T18:10:31.334Z,12.40
2019-02-16T18:13:01.554Z,12.40
2019-02-16T18:15:31.618Z,12.30
2019-02-16T18:18:13.290Z,12.30
2019-02-16T18:20:58.227Z,12.20
2019-02-16T18:23:33.831Z,12.10
2019-02-16T18:26:03.948Z,11.90
2019-02-16T18:28:36.742Z,11.80
2019-02-16T18:31:12.682Z,11.70
2019-02-16T18:34:00.628Z,11.60
2019-02-16T18:36:42.311Z,11.50
2019-02-16T18:39:12.672Z,11.30
2019-02-16T18:41:48.839Z,11.20
2019-02-16T18:44:21.691Z,11.20
2019-02-16T18:47:07.586Z,11.10
2019-02-16T18:49:46.549Z,11.10
2019-02-16T18:52:22.382Z,11.00
2019-02-16T18:54:58.337Z,11.00
2019-02-16T18:57:44.276Z,10.90
2019-02-16T19:00:17.252Z,10.80
2019-02-16T19:02:47.328Z,10.70
2019-02-16T19:05:20.376Z,10.70
2019-02-16T19:07:50.584Z,10.70
2019-02-16T19:10:20.776Z,10.60
2019-02-16T19:12:53.381Z,10.50
2019-02-16T19:15:23.528Z,10.40
2019-02-16T19:17:56.402Z,10.40
2019-02-16T19:20:26.505Z,10.30
2019-02-16T19:22:56.569Z,10.30
2019-02-16T19:25:35.187Z,10.20
2019-02-16T19:28:20.075Z,10.20
2019-02-16T19:30:59.063Z,10.20
2019-02-16T19:33:34.921Z,10.20
2019-02-16T19:36:08.035Z,10.10
2019-02-16T19:38:38.137Z,10.10
2019-02-16T19:41:19.764Z,10.00
2019-02-16T19:43:49.949Z,9.90
2019-02-16T19:46:36.040Z,9.80
2019-02-16T19:49:08.898Z,9.80
2019-02-16T19:51:55.438Z,9.60
2019-02-16T19:54:25.515Z,9.60
2019-02-16T19:56:55.623Z,9.50
2019-02-16T19:59:25.797Z,9.50
2019-02-16T20:02:01.631Z,9.40
2019-02-16T20:04:40.397Z,9.40
2019-02-16T20:07:13.234Z,9.40
2019-02-16T20:09:49.043Z,9.40
2019-02-16T20:12:19.121Z,9.40
2019-02-16T20:14:49.239Z,9.30
2019-02-16T20:17:28.368Z,9.30
2019-02-16T20:20:04.523Z,9.20
2019-02-16T20:22:49.485Z,9.20
2019-02-16T20:25:22.154Z,9.10
2019-02-16T20:27:52.260Z,9.10
2019-02-16T20:30:40.236Z,9.00
2019-02-16T20:33:10.348Z,8.90
2019-02-16T20:35:55.205Z,8.80
2019-02-16T20:38:25.288Z,8.80
2019-02-16T20:40:58.445Z,8.70
2019-02-16T20:43:43.658Z,8.70
2019-02-16T20:46:19.509Z,8.60
2019-02-16T20:48:58.701Z,8.60
2019-02-16T20:51:45.103Z,8.50
2019-02-16T20:54:21.222Z,8.40
2019-02-16T20:57:09.193Z,8.30
2019-02-16T20:59:48.337Z,8.30
2019-02-16T21:02:21.270Z,8.30
2019-02-16T21:04:57.452Z,8.40
2019-02-16T21:07:39.354Z,8.30
2019-02-16T21:10:26.412Z,8.30
2019-02-16T21:12:56.531Z,8.30
2019-02-16T21:15:35.706Z,8.20
2019-02-16T21:18:13.797Z,8.20
2019-02-16T21:20:49.529Z,8.20
2019-02-16T21:23:37.903Z,8.20
2019-02-16T21:26:23.109Z,8.20
2019-02-16T21:28:53.188Z,8.10
2019-02-16T21:31:23.449Z,8.10
2019-02-16T21:33:56.521Z,8.00
2019-02-16T21:36:30.182Z,8.00
2019-02-16T21:39:03.687Z,7.90
2019-02-16T21:41:49.933Z,7.80
2019-02-16T21:44:22.459Z,7.80
2019-02-16T21:47:08.780Z,7.80
2019-02-16T21:49:55.495Z,7.70
2019-02-16T21:52:31.360Z,7.70
2019-02-16T21:55:01.658Z,7.70
2019-02-16T21:57:43.619Z,7.70
2019-02-16T22:00:30.132Z,7.70
2019-02-16T22:03:02.908Z,7.80
2019-02-16T22:05:33.012Z,7.80
2019-02-16T22:08:03.102Z,7.80
2019-02-16T22:10:44.989Z,7.90
2019-02-16T22:13:13.416Z,8.00
2019-02-16T22:15:41.867Z,8.00
2019-02-16T22:18:10.375Z,8.00
2019-02-16T22:20:38.839Z,7.90
2019-02-16T22:23:07.256Z,7.90
2019-02-16T22:25:35.785Z,7.90
2019-02-16T22:28:04.285Z,7.90
2019-02-16T22:30:32.731Z,7.90
2019-02-16T22:33:01.181Z,7.90
2019-02-16T22:35:29.686Z,8.00
2019-02-16T22:37:58.106Z,8.00
2019-02-16T22:40:26.580Z,8.00
2019-02-16T22:42:55.007Z,7.90
2019-02-16T22:45:23.449Z,7.90
2019-02-16T22:47:51.882Z,7.90
2019-02-16T22:50:20.403Z,7.90
2019-02-16T22:52:48.857Z,7.90
2019-02-16T22:55:17.439Z,7.90
2019-02-16T22:57:45.869Z,7.90
2019-02-16T23:00:19.034Z,7.80
2019-02-16T23:02:47.719Z,7.80
2019-02-16T23:05:16.285Z,7.70
2019-02-16T23:07:44.846Z,7.70
2019-02-16T23:10:13.544Z,7.60
2019-02-16T23:12:42.192Z,7.60
2019-02-16T23:15:11.793Z,7.60
2019-02-16T23:17:40.358Z,7.60
2019-02-16T23:20:10.994Z,7.50
2019-02-16T23:22:39.505Z,7.50
2019-02-16T23:25:08.928Z,7.40
2019-02-16T23:27:37.474Z,7.40
2019-02-16T23:30:09.283Z,7.30
2019-02-16T23:32:37.898Z,7.30
2019-02-16T23:35:08.014Z,7.20
2019-02-16T23:37:36.589Z,7.10
2019-02-16T23:40:07.183Z,7.10
2019-02-16T23:42:35.836Z,7.00
2019-02-16T23:45:06.213Z,6.90
2019-02-16T23:47:34.759Z,6.90
2019-02-16T23:50:03.448Z,6.90
2019-02-16T23:52:34.505Z,6.80
2019-02-16T23:55:03.352Z,6.80
2019-02-16T23:57:31.835Z,6.70
